createdAt,value
2023-03-29T00:07:37.900Z,4.8
2023-03-29T00:17:37.810Z,4.8
2023-03-29T00:27:37.789Z,4.8
2023-03-29T00:37:37.765Z,4.8
2023-03-29T00:47:37.738Z,4.9
2023-03-29T00:57:37.719Z,4.9
2023-03-29T01:07:37.771Z,4.9
2023-03-29T01:17:37.657Z,5
2023-03-29T01:27:37.637Z,4.9
2023-03-29T01:37:37.631Z,5
2023-03-29T01:47:37.596Z,5
2023-03-29T01:57:37.579Z,5
2023-03-29T02:07:37.526Z,5.1
2023-03-29T02:17:37.513Z,5.1
2023-03-29T02:27:37.473Z,5.1
2023-03-29T02:37:37.444Z,5.2
2023-03-29T02:47:37.424Z,5.3
2023-03-29T02:57:37.396Z,5.4
2023-03-29T03:07:37.369Z,5.4
2023-03-29T03:17:37.336Z,5.5
2023-03-29T03:27:37.306Z,5.6
2023-03-29T03:37:37.278Z,5.7
2023-03-29T03:47:37.258Z,5.7
2023-03-29T03:57:37.253Z,5.7
2023-03-29T04:07:37.194Z,5.7
2023-03-29T04:17:37.178Z,5.8
2023-03-29T04:27:37.149Z,5.9
2023-03-29T04:37:37.135Z,6
2023-03-29T04:47:37.094Z,6
2023-03-29T04:57:37.104Z,6
2023-03-29T05:07:37.045Z,6
2023-03-29T05:17:37.008Z,6
2023-03-29T05:27:36.977Z,6.1
2023-03-29T05:37:36.957Z,6.2
2023-03-29T05:47:36.929Z,6.3
2023-03-29T05:57:36.904Z,6.4
2023-03-29T06:07:36.870Z,6.5
2023-03-29T06:17:36.851Z,6.7
2023-03-29T06:27:36.830Z,6.9
2023-03-29T06:37:36.813Z,7
2023-03-29T06:47:36.773Z,7.1
2023-03-29T06:57:36.804Z,7.2
2023-03-29T07:07:36.700Z,7.4
2023-03-29T07:17:36.669Z,7.8
2023-03-29T07:27:36.669Z,8
2023-03-29T07:37:36.636Z,8
2023-03-29T07:47:36.621Z,8
2023-03-29T07:57:36.566Z,8.1
2023-03-29T08:07:36.550Z,8.3
2023-03-29T08:17:36.499Z,8.6
2023-03-29T08:27:36.639Z,8.8
2023-03-29T08:37:35.013Z,8.9
2023-03-29T08:47:34.979Z,9.2
2023-03-29T08:57:34.939Z,9.6
2023-03-29T09:07:34.913Z,9.7
2023-03-29T09:17:34.920Z,9.7
2023-03-29T09:27:34.867Z,9.8
2023-03-29T09:37:34.837Z,10
2023-03-29T09:47:34.785Z,10
2023-03-29T09:57:34.764Z,10.2
2023-03-29T10:07:34.728Z,10.4
2023-03-29T10:17:34.709Z,10.5
2023-03-29T10:27:34.687Z,10.6
2023-03-29T10:37:34.633Z,10.8
2023-03-29T10:47:34.609Z,11
2023-03-29T10:57:34.583Z,11.4
2023-03-29T11:07:34.548Z,12.1
2023-03-29T11:17:34.516Z,12.4
2023-03-29T11:27:34.485Z,12.8
2023-03-29T11:37:34.457Z,12.9
2023-03-29T11:47:34.431Z,13.3
2023-03-29T11:57:34.378Z,14
2023-03-29T12:07:34.354Z,14
2023-03-29T12:17:34.341Z,14
2023-03-29T12:27:34.300Z,14.3
2023-03-29T12:37:34.283Z,14.5
2023-03-29T12:47:34.255Z,14.4
2023-03-29T12:57:34.249Z,14.7
2023-03-29T13:07:34.155Z,15.1
2023-03-29T13:17:34.159Z,15.2
2023-03-29T13:27:34.113Z,15.3
2023-03-29T13:37:34.061Z,15.4
2023-03-29T13:47:34.058Z,15.4
2023-03-29T13:57:34.050Z,15.6
2023-03-29T14:07:33.980Z,15.8
2023-03-29T14:17:33.937Z,15.9
2023-03-29T14:27:33.906Z,16
2023-03-29T14:37:33.892Z,16
2023-03-29T14:47:33.849Z,16.2
2023-03-29T14:57:33.786Z,16.2
2023-03-29T15:07:33.765Z,16.2
2023-03-29T15:17:51.782Z,16.2
2023-03-29T15:27:33.728Z,16.2
2023-03-29T15:37:33.664Z,16.1
2023-03-29T15:47:33.634Z,15.9
2023-03-29T15:57:33.591Z,15.8
2023-03-29T16:07:33.590Z,15.7
2023-03-29T16:17:33.540Z,15.7
2023-03-29T16:27:33.504Z,15.6
2023-03-29T16:37:33.462Z,15.6
2023-03-29T16:47:33.426Z,15.6
2023-03-29T16:57:33.393Z,15.6
2023-03-29T17:07:33.382Z,15.5
2023-03-29T17:17:33.333Z,15.4
2023-03-29T17:27:33.306Z,15.4
2023-03-29T17:37:33.271Z,15.4
2023-03-29T17:47:33.240Z,15.3
2023-03-29T17:57:33.204Z,15.2
2023-03-29T18:07:33.165Z,15
2023-03-29T18:17:33.176Z,14.8
2023-03-29T18:27:33.109Z,14.7
2023-03-29T18:37:33.082Z,14.5
2023-03-29T18:47:33.059Z,14.3
2023-03-29T18:57:33.011Z,14.2
2023-03-29T19:07:32.984Z,14
2023-03-29T19:17:32.954Z,13.9
2023-03-29T19:27:32.927Z,13.7
2023-03-29T19:37:32.899Z,13.6
2023-03-29T19:47:32.869Z,13.4
2023-03-29T19:57:32.805Z,13.3
2023-03-29T20:07:32.788Z,13.1
2023-03-29T20:17:32.768Z,13.1
2023-03-29T20:27:32.733Z,12.9
2023-03-29T20:37:32.721Z,12.9
2023-03-29T20:47:32.655Z,12.9
2023-03-29T20:57:32.646Z,12.9
2023-03-29T21:07:32.591Z,12.9
2023-03-29T21:17:32.573Z,12.8
2023-03-29T21:27:32.567Z,12.9
2023-03-29T21:37:32.523Z,12.9
2023-03-29T21:47:32.463Z,12.8
2023-03-29T21:57:32.433Z,12.7
2023-03-29T22:07:32.412Z,12.8
2023-03-29T22:17:32.404Z,12.8
2023-03-29T22:27:32.345Z,12.8
2023-03-29T22:37:32.354Z,12.7
2023-03-29T22:47:32.308Z,12.5
2023-03-29T22:57:32.243Z,12.4
2023-03-29T23:07:32.222Z,12.4
2023-03-29T23:17:32.199Z,12.3
2023-03-29T23:27:32.154Z,12.2
2023-03-29T23:37:32.135Z,12.3
2023-03-29T23:47:32.088Z,12.5
2023-03-29T23:57:32.079Z,12.8
